sensor_id;sensor_type;location;lat;lon;timestamp;pressure;altitude;pressure_sealevel;temperature;humidity
79527;BME280;68974;47.754;-3.364;2023-11-19T00:00:06;101734.13;;;13.73;94.33
79527;BME280;68974;47.754;-3.364;2023-11-19T00:02:31;101733.31;;;13.72;94.30
79527;BME280;68974;47.754;-3.364;2023-11-19T00:04:57;101736.06;;;13.67;94.65
79527;BME280;68974;47.754;-3.364;2023-11-19T00:07:23;101731.38;;;13.68;95.04
79527;BME280;68974;47.754;-3.364;2023-11-19T00:09:48;101732.75;;;13.65;94.46
79527;BME280;68974;47.754;-3.364;2023-11-19T00:12:14;101738.25;;;13.70;94.60
79527;BME280;68974;47.754;-3.364;2023-11-19T00:14:39;101750.41;;;13.59;95.11
79527;BME280;68974;47.754;-3.364;2023-11-19T00:17:06;101742.97;;;13.65;95.01
79527;BME280;68974;47.754;-3.364;2023-11-19T00:19:31;101734.97;;;13.58;94.83
79527;BME280;68974;47.754;-3.364;2023-11-19T00:21:56;101739.94;;;13.61;94.98
79527;BME280;68974;47.754;-3.364;2023-11-19T00:24:22;101736.59;;;13.59;94.72
79527;BME280;68974;47.754;-3.364;2023-11-19T00:26:47;101741.88;;;13.61;94.61
79527;BME280;68974;47.754;-3.364;2023-11-19T00:29:12;101743.78;;;13.65;94.17
79527;BME280;68974;47.754;-3.364;2023-11-19T00:31:39;101731.38;;;13.58;94.26
79527;BME280;68974;47.754;-3.364;2023-11-19T00:34:04;101744.34;;;13.62;94.00
79527;BME280;68974;47.754;-3.364;2023-11-19T00:36:31;101728.63;;;13.53;94.52
79527;BME280;68974;47.754;-3.364;2023-11-19T00:38:56;101731.38;;;13.58;94.37
79527;BME280;68974;47.754;-3.364;2023-11-19T00:41:22;101733.06;;;13.49;94.45
79527;BME280;68974;47.754;-3.364;2023-11-19T00:43:47;101730.28;;;13.49;94.68
79527;BME280;68974;47.754;-3.364;2023-11-19T00:46:14;101722.28;;;13.42;94.99
79527;BME280;68974;47.754;-3.364;2023-11-19T00:48:40;101724.47;;;13.40;94.92
79527;BME280;68974;47.754;-3.364;2023-11-19T00:51:05;101723.63;;;13.39;95.03
79527;BME280;68974;47.754;-3.364;2023-11-19T00:53:31;101731.91;;;13.34;95.06
79527;BME280;68974;47.754;-3.364;2023-11-19T00:56:00;101726.97;;;13.41;94.89
79527;BME280;68974;47.754;-3.364;2023-11-19T00:58:25;101728.34;;;13.39;94.65
79527;BME280;68974;47.754;-3.364;2023-11-19T01:00:51;101717.03;;;13.45;94.36
79527;BME280;68974;47.754;-3.364;2023-11-19T01:03:16;101728.63;;;13.42;94.52
79527;BME280;68974;47.754;-3.364;2023-11-19T01:05:42;101733.84;;;13.39;94.84
79527;BME280;68974;47.754;-3.364;2023-11-19T01:08:07;101723.38;;;13.36;94.37
79527;BME280;68974;47.754;-3.364;2023-11-19T01:10:33;101725.56;;;13.39;94.47
79527;BME280;68974;47.754;-3.364;2023-11-19T01:12:59;101720.63;;;13.51;94.11
79527;BME280;68974;47.754;-3.364;2023-11-19T01:15:25;101721.44;;;13.41;94.39
79527;BME280;68974;47.754;-3.364;2023-11-19T01:17:50;101717.03;;;13.45;94.17
79527;BME280;68974;47.754;-3.364;2023-11-19T01:20:15;101716.75;;;13.42;94.38
79527;BME280;68974;47.754;-3.364;2023-11-19T01:22:41;101726.41;;;13.39;94.52
79527;BME280;68974;47.754;-3.364;2023-11-19T01:25:07;101725.56;;;13.44;94.37
79527;BME280;68974;47.754;-3.364;2023-11-19T01:27:32;101733.03;;;13.38;94.45
79527;BME280;68974;47.754;-3.364;2023-11-19T01:30:00;101724.78;;;13.38;94.84
79527;BME280;68974;47.754;-3.364;2023-11-19T01:32:29;101714.25;;;13.35;94.78
79527;BME280;68974;47.754;-3.364;2023-11-19T01:34:54;101713.44;;;13.30;94.88
79527;BME280;68974;47.754;-3.364;2023-11-19T01:37:20;101709.00;;;13.39;94.72
79527;BME280;68974;47.754;-3.364;2023-11-19T01:39:45;101717.03;;;13.30;94.83
79527;BME280;68974;47.754;-3.364;2023-11-19T01:42:11;101722.28;;;13.37;94.40
79527;BME280;68974;47.754;-3.364;2023-11-19T01:44:39;101723.94;;;13.33;94.65
79527;BME280;68974;47.754;-3.364;2023-11-19T01:47:06;101718.69;;;13.36;94.32
79527;BME280;68974;47.754;-3.364;2023-11-19T01:49:32;101719.25;;;13.38;94.54
79527;BME280;68974;47.754;-3.364;2023-11-19T01:51:58;101721.19;;;13.38;94.83
79527;BME280;68974;47.754;-3.364;2023-11-19T01:54:24;101712.91;;;13.33;94.90
79527;BME280;68974;47.754;-3.364;2023-11-19T01:56:50;101721.72;;;13.30;95.22
79527;BME280;68974;47.754;-3.364;2023-11-19T01:59:17;101715.34;;;13.29;95.65
79527;BME280;68974;47.754;-3.364;2023-11-19T02:01:44;101715.34;;;13.34;95.55
79527;BME280;68974;47.754;-3.364;2023-11-19T02:04:09;101711.81;;;13.34;95.57
79527;BME280;68974;47.754;-3.364;2023-11-19T02:06:40;101713.44;;;13.35;95.40
79527;BME280;68974;47.754;-3.364;2023-11-19T02:09:08;101701.84;;;13.43;95.46
79527;BME280;68974;47.754;-3.364;2023-11-19T02:11:34;101704.06;;;13.41;95.02
79527;BME280;68974;47.754;-3.364;2023-11-19T02:14:00;101707.09;;;13.29;95.35
79527;BME280;68974;47.754;-3.364;2023-11-19T02:16:27;101706.81;;;13.31;95.56
79527;BME280;68974;47.754;-3.364;2023-11-19T02:18:53;101704.06;;;13.31;95.75
79527;BME280;68974;47.754;-3.364;2023-11-19T02:21:18;101702.38;;;13.30;95.71
79527;BME280;68974;47.754;-3.364;2023-11-19T02:23:44;101714.56;;;13.24;95.79
79527;BME280;68974;47.754;-3.364;2023-11-19T02:26:33;101714.00;;;13.27;95.72
79527;BME280;68974;47.754;-3.364;2023-11-19T02:29:01;101718.16;;;13.19;95.76
79527;BME280;68974;47.754;-3.364;2023-11-19T02:31:28;101710.66;;;13.15;96.18
79527;BME280;68974;47.754;-3.364;2023-11-19T02:33:53;101710.66;;;13.15;96.18
79527;BME280;68974;47.754;-3.364;2023-11-19T02:36:19;101708.41;;;13.07;96.56
79527;BME280;68974;47.754;-3.364;2023-11-19T02:38:44;101715.34;;;13.09;96.72
79527;BME280;68974;47.754;-3.364;2023-11-19T02:41:10;101720.91;;;13.14;96.21
79527;BME280;68974;47.754;-3.364;2023-11-19T02:43:37;101707.88;;;13.10;96.28
79527;BME280;68974;47.754;-3.364;2023-11-19T02:46:04;101706.78;;;13.11;95.90
79527;BME280;68974;47.754;-3.364;2023-11-19T02:48:33;101718.41;;;13.13;96.24
79527;BME280;68974;47.754;-3.364;2023-11-19T02:51:01;101712.06;;;13.12;95.67
79527;BME280;68974;47.754;-3.364;2023-11-19T02:53:29;101716.16;;;13.05;96.20
79527;BME280;68974;47.754;-3.364;2023-11-19T02:55:54;101706.22;;;12.98;96.33
79527;BME280;68974;47.754;-3.364;2023-11-19T02:58:27;101704.00;;;12.95;96.47
79527;BME280;68974;47.754;-3.364;2023-11-19T03:00:53;101702.06;;;12.91;96.74
79527;BME280;68974;47.754;-3.364;2023-11-19T03:03:34;101707.88;;;12.94;96.30
79527;BME280;68974;47.754;-3.364;2023-11-19T03:06:07;101702.88;;;12.96;96.35
79527;BME280;68974;47.754;-3.364;2023-11-19T03:08:35;101695.72;;;12.95;96.06
79527;BME280;68974;47.754;-3.364;2023-11-19T03:11:01;101696.84;;;12.89;96.11
79527;BME280;68974;47.754;-3.364;2023-11-19T03:13:27;101688.56;;;12.84;96.49
79527;BME280;68974;47.754;-3.364;2023-11-19T03:15:52;101694.06;;;12.84;96.20
79527;BME280;68974;47.754;-3.364;2023-11-19T03:18:19;101682.47;;;12.87;96.17
79527;BME280;68974;47.754;-3.364;2023-11-19T03:20:46;101702.34;;;12.84;96.00
79527;BME280;68974;47.754;-3.364;2023-11-19T03:23:12;101695.72;;;12.80;95.95
79527;BME280;68974;47.754;-3.364;2023-11-19T03:25:37;101692.16;;;12.90;95.87
79527;BME280;68974;47.754;-3.364;2023-11-19T03:28:03;101699.28;;;12.86;95.42
79527;BME280;68974;47.754;-3.364;2023-11-19T03:30:30;101691.84;;;12.86;95.50
79527;BME280;68974;47.754;-3.364;2023-11-19T03:32:56;101696.84;;;12.89;94.78
79527;BME280;68974;47.754;-3.364;2023-11-19T03:35:22;101691.84;;;12.81;95.12
79527;BME280;68974;47.754;-3.364;2023-11-19T03:37:48;101689.09;;;12.86;94.84
79527;BME280;68974;47.754;-3.364;2023-11-19T03:40:13;101699.59;;;12.84;94.74
79527;BME280;68974;47.754;-3.364;2023-11-19T03:42:40;101696.84;;;12.89;94.37
79527;BME280;68974;47.754;-3.364;2023-11-19T03:45:08;101692.97;;;13.00;93.39
79527;BME280;68974;47.754;-3.364;2023-11-19T03:47:36;101696.25;;;12.87;93.95
79527;BME280;68974;47.754;-3.364;2023-11-19T03:50:02;101698.75;;;12.84;93.86
79527;BME280;68974;47.754;-3.364;2023-11-19T03:52:28;101683.88;;;12.85;93.46
79527;BME280;68974;47.754;-3.364;2023-11-19T03:54:54;101690.75;;;12.87;93.47
79527;BME280;68974;47.754;-3.364;2023-11-19T03:57:21;101683.03;;;12.84;93.03
79527;BME280;68974;47.754;-3.364;2023-11-19T03:59:46;101686.34;;;12.86;92.92
79527;BME280;68974;47.754;-3.364;2023-11-19T04:02:12;101677.53;;;12.84;92.51
79527;BME280;68974;47.754;-3.364;2023-11-19T04:04:37;101688.81;;;12.88;92.55
79527;BME280;68974;47.754;-3.364;2023-11-19T04:07:04;101692.69;;;12.87;92.40
79527;BME280;68974;47.754;-3.364;2023-11-19T04:09:30;101688.00;;;12.87;92.35
79527;BME280;68974;47.754;-3.364;2023-11-19T04:11:57;101690.75;;;12.82;92.45
79527;BME280;68974;47.754;-3.364;2023-11-19T04:14:23;101701.78;;;12.82;92.81
79527;BME280;68974;47.754;-3.364;2023-11-19T04:16:48;101699.59;;;12.84;92.61
79527;BME280;68974;47.754;-3.364;2023-11-19T04:19:13;101703.97;;;12.90;92.21
79527;BME280;68974;47.754;-3.364;2023-11-19T04:21:42;101693.50;;;12.92;92.17
79527;BME280;68974;47.754;-3.364;2023-11-19T04:24:11;101711.16;;;12.91;92.18
79527;BME280;68974;47.754;-3.364;2023-11-19T04:26:42;101706.75;;;13.00;91.38
79527;BME280;68974;47.754;-3.364;2023-11-19T04:29:12;101710.34;;;13.01;91.16
79527;BME280;68974;47.754;-3.364;2023-11-19T04:31:38;101705.09;;;13.10;90.60
79527;BME280;68974;47.754;-3.364;2023-11-19T04:34:04;101708.41;;;13.07;90.85
79527;BME280;68974;47.754;-3.364;2023-11-19T04:36:30;101710.66;;;13.05;90.89
79527;BME280;68974;47.754;-3.364;2023-11-19T04:38:55;101713.09;;;13.06;91.13
79527;BME280;68974;47.754;-3.364;2023-11-19T04:41:20;101712.28;;;13.06;91.43
79527;BME280;68974;47.754;-3.364;2023-11-19T04:43:46;101716.16;;;13.05;91.92
79527;BME280;68974;47.754;-3.364;2023-11-19T04:46:11;101711.19;;;13.01;92.01
79527;BME280;68974;47.754;-3.364;2023-11-19T04:48:37;101719.47;;;13.07;92.21
79527;BME280;68974;47.754;-3.364;2023-11-19T04:51:04;101721.69;;;13.05;92.41
79527;BME280;68974;47.754;-3.364;2023-11-19T04:53:30;101724.69;;;13.03;92.58
79527;BME280;68974;47.754;-3.364;2023-11-19T04:55:55;101710.09;;;13.08;92.13
79527;BME280;68974;47.754;-3.364;2023-11-19T04:58:21;101722.25;;;13.12;92.13
79527;BME280;68974;47.754;-3.364;2023-11-19T05:00:46;101718.41;;;13.23;91.49
79527;BME280;68974;47.754;-3.364;2023-11-19T05:03:11;101718.94;;;13.20;90.86
79527;BME280;68974;47.754;-3.364;2023-11-19T05:05:37;101728.03;;;13.20;90.77
79527;BME280;68974;47.754;-3.364;2023-11-19T05:08:02;101732.19;;;13.18;91.13
79527;BME280;68974;47.754;-3.364;2023-11-19T05:10:28;101726.69;;;13.18;90.75
79527;BME280;68974;47.754;-3.364;2023-11-19T05:12:53;101731.63;;;13.16;90.66
79527;BME280;68974;47.754;-3.364;2023-11-19T05:15:21;101733.56;;;13.15;90.58
79527;BME280;68974;47.754;-3.364;2023-11-19T05:17:46;101733.03;;;13.18;90.06
79527;BME280;68974;47.754;-3.364;2023-11-19T05:20:12;101729.72;;;13.16;89.85
79527;BME280;68974;47.754;-3.364;2023-11-19T05:22:41;101746.47;;;13.10;89.89
79527;BME280;68974;47.754;-3.364;2023-11-19T05:25:07;101740.16;;;13.04;89.76
79527;BME280;68974;47.754;-3.364;2023-11-19T05:27:34;101745.66;;;12.94;89.73
79527;BME280;68974;47.754;-3.364;2023-11-19T05:30:00;101757.50;;;12.89;89.28
79527;BME280;68974;47.754;-3.364;2023-11-19T05:32:25;101748.09;;;12.90;89.02
79527;BME280;68974;47.754;-3.364;2023-11-19T05:34:50;101740.97;;;12.94;88.69
79527;BME280;68974;47.754;-3.364;2023-11-19T05:37:16;101749.78;;;13.07;88.39
79527;BME280;68974;47.754;-3.364;2023-11-19T05:39:42;101737.94;;;13.01;88.21
79527;BME280;68974;47.754;-3.364;2023-11-19T05:42:07;101744.28;;;13.07;87.94
79527;BME280;68974;47.754;-3.364;2023-11-19T05:44:32;101747.59;;;13.03;88.15
79527;BME280;68974;47.754;-3.364;2023-11-19T05:46:58;101758.31;;;13.00;88.47
79527;BME280;68974;47.754;-3.364;2023-11-19T05:49:23;101748.41;;;12.94;88.68
79527;BME280;68974;47.754;-3.364;2023-11-19T05:51:48;101749.50;;;12.88;88.77
79527;BME280;68974;47.754;-3.364;2023-11-19T05:54:14;101745.34;;;12.85;88.25
79527;BME280;68974;47.754;-3.364;2023-11-19T05:56:39;101738.19;;;12.84;87.48
79527;BME280;68974;47.754;-3.364;2023-11-19T05:59:05;101736.25;;;12.80;87.96
79527;BME280;68974;47.754;-3.364;2023-11-19T06:01:34;101722.16;;;12.81;87.59
79527;BME280;68974;47.754;-3.364;2023-11-19T06:03:59;101738.16;;;12.79;87.44
79527;BME280;68974;47.754;-3.364;2023-11-19T06:06:26;101726.56;;;12.77;87.21
79527;BME280;68974;47.754;-3.364;2023-11-19T06:08:51;101737.31;;;12.74;87.55
79527;BME280;68974;47.754;-3.364;2023-11-19T06:11:17;101733.44;;;12.65;87.92
79527;BME280;68974;47.754;-3.364;2023-11-19T06:13:46;101735.91;;;12.71;87.59
79527;BME280;68974;47.754;-3.364;2023-11-19T06:16:13;101740.91;;;12.74;87.38
79527;BME280;68974;47.754;-3.364;2023-11-19T06:18:39;101745.84;;;12.72;87.39
79527;BME280;68974;47.754;-3.364;2023-11-19T06:21:04;101747.78;;;12.72;87.31
79527;BME280;68974;47.754;-3.364;2023-11-19T06:23:30;101740.91;;;12.69;87.28
79527;BME280;68974;47.754;-3.364;2023-11-19T06:25:55;101742.00;;;12.73;87.09
79527;BME280;68974;47.754;-3.364;2023-11-19T06:28:20;101743.91;;;12.68;86.96
79527;BME280;68974;47.754;-3.364;2023-11-19T06:30:46;101748.63;;;12.77;86.54
79527;BME280;68974;47.754;-3.364;2023-11-19T06:33:14;101745.88;;;12.77;86.80
79527;BME280;68974;47.754;-3.364;2023-11-19T06:35:40;101746.16;;;12.86;85.75
79527;BME280;68974;47.754;-3.364;2023-11-19T06:38:05;101744.22;;;12.81;85.94
79527;BME280;68974;47.754;-3.364;2023-11-19T06:40:31;101737.88;;;12.81;86.13
79527;BME280;68974;47.754;-3.364;2023-11-19T06:42:57;101740.63;;;12.76;86.20
79527;BME280;68974;47.754;-3.364;2023-11-19T06:45:22;101733.19;;;12.81;86.17
79527;BME280;68974;47.754;-3.364;2023-11-19T06:47:48;101749.75;;;12.91;85.45
79527;BME280;68974;47.754;-3.364;2023-11-19T06:50:13;101750.31;;;12.88;85.53
79527;BME280;68974;47.754;-3.364;2023-11-19T06:52:40;101744.53;;;12.90;85.60
79527;BME280;68974;47.754;-3.364;2023-11-19T06:55:05;101745.88;;;12.82;85.68
79527;BME280;68974;47.754;-3.364;2023-11-19T06:57:31;101752.78;;;12.80;86.01
79527;BME280;68974;47.754;-3.364;2023-11-19T06:59:57;101763.50;;;12.76;86.03
79527;BME280;68974;47.754;-3.364;2023-11-19T07:02:23;101759.38;;;12.74;86.16
79527;BME280;68974;47.754;-3.364;2023-11-19T07:04:49;101772.63;;;12.82;85.69
79527;BME280;68974;47.754;-3.364;2023-11-19T07:07:14;101767.94;;;12.82;85.89
79527;BME280;68974;47.754;-3.364;2023-11-19T07:09:40;101761.31;;;12.78;86.10
79527;BME280;68974;47.754;-3.364;2023-11-19T07:12:06;101773.69;;;12.76;86.06
79527;BME280;68974;47.754;-3.364;2023-11-19T07:14:32;101767.66;;;12.74;86.46
79527;BME280;68974;47.754;-3.364;2023-11-19T07:16:57;101765.19;;;12.82;85.81
79527;BME280;68974;47.754;-3.364;2023-11-19T07:19:23;101766.59;;;12.90;85.63
79527;BME280;68974;47.754;-3.364;2023-11-19T07:21:48;101759.13;;;12.90;85.12
79527;BME280;68974;47.754;-3.364;2023-11-19T07:24:14;101757.50;;;12.89;85.02
79527;BME280;68974;47.754;-3.364;2023-11-19T07:26:43;101754.41;;;12.81;85.94
79527;BME280;68974;47.754;-3.364;2023-11-19T07:29:09;101763.53;;;12.86;85.61
79527;BME280;68974;47.754;-3.364;2023-11-19T07:31:35;101771.28;;;12.84;85.37
79527;BME280;68974;47.754;-3.364;2023-11-19T07:34:01;101766.88;;;12.88;84.76
79527;BME280;68974;47.754;-3.364;2023-11-19T07:36:26;101754.16;;;12.82;84.62
79527;BME280;68974;47.754;-3.364;2023-11-19T07:38:51;101777.88;;;12.78;85.13
79527;BME280;68974;47.754;-3.364;2023-11-19T07:41:17;101777.91;;;12.88;84.46
79527;BME280;68974;47.754;-3.364;2023-11-19T07:43:45;101777.94;;;13.03;83.72
79527;BME280;68974;47.754;-3.364;2023-11-19T07:46:12;101769.66;;;13.03;82.67
79527;BME280;68974;47.754;-3.364;2023-11-19T07:48:38;101775.19;;;13.09;82.56
79527;BME280;68974;47.754;-3.364;2023-11-19T07:51:04;101777.19;;;13.18;82.75
79527;BME280;68974;47.754;-3.364;2023-11-19T07:53:29;101782.94;;;13.12;83.10
79527;BME280;68974;47.754;-3.364;2023-11-19T07:55:55;101776.34;;;13.18;83.26
79527;BME280;68974;47.754;-3.364;2023-11-19T07:58:20;101766.34;;;13.07;83.64
79527;BME280;68974;47.754;-3.364;2023-11-19T08:00:46;101762.22;;;13.09;83.77
79527;BME280;68974;47.754;-3.364;2023-11-19T08:03:11;101776.28;;;13.02;84.19
79527;BME280;68974;47.754;-3.364;2023-11-19T08:05:37;101781.25;;;13.11;84.24
79527;BME280;68974;47.754;-3.364;2023-11-19T08:08:02;101781.81;;;13.08;84.07
79527;BME280;68974;47.754;-3.364;2023-11-19T08:10:28;101794.47;;;12.98;83.49
79527;BME280;68974;47.754;-3.364;2023-11-19T08:12:54;101796.13;;;12.99;83.36
79527;BME280;68974;47.754;-3.364;2023-11-19T08:15:19;101812.66;;;12.94;82.83
79527;BME280;68974;47.754;-3.364;2023-11-19T08:17:44;101800.00;;;12.98;82.12
79527;BME280;68974;47.754;-3.364;2023-11-19T08:20:10;101800.53;;;13.06;81.88
79527;BME280;68974;47.754;-3.364;2023-11-19T08:22:36;101809.97;;;13.15;82.05
79527;BME280;68974;47.754;-3.364;2023-11-19T08:25:06;101808.84;;;13.11;82.57
79527;BME280;68974;47.754;-3.364;2023-11-19T08:27:32;101819.88;;;13.11;83.01
79527;BME280;68974;47.754;-3.364;2023-11-19T08:29:57;101812.72;;;13.15;83.20
79527;BME280;68974;47.754;-3.364;2023-11-19T08:32:26;101825.16;;;13.17;83.57
79527;BME280;68974;47.754;-3.364;2023-11-19T08:34:52;101821.00;;;13.15;84.20
79527;BME280;68974;47.754;-3.364;2023-11-19T08:37:17;101819.41;;;13.24;83.71
79527;BME280;68974;47.754;-3.364;2023-11-19T08:39:49;101813.06;;;13.23;83.76
79527;BME280;68974;47.754;-3.364;2023-11-19T08:42:16;101819.09;;;13.15;83.72
79527;BME280;68974;47.754;-3.364;2023-11-19T08:44:42;101807.81;;;13.27;83.42
79527;BME280;68974;47.754;-3.364;2023-11-19T08:47:12;101808.91;;;13.31;82.45
79527;BME280;68974;47.754;-3.364;2023-11-19T08:49:39;101811.94;;;13.34;82.26
79527;BME280;68974;47.754;-3.364;2023-11-19T08:52:05;101819.97;;;13.36;81.50
79527;BME280;68974;47.754;-3.364;2023-11-19T08:54:32;101821.88;;;13.35;81.33
79527;BME280;68974;47.754;-3.364;2023-11-19T08:56:58;101828.25;;;13.46;80.46
79527;BME280;68974;47.754;-3.364;2023-11-19T08:59:24;101810.59;;;13.52;80.85
79527;BME280;68974;47.754;-3.364;2023-11-19T09:01:49;101817.78;;;13.53;80.72
79527;BME280;68974;47.754;-3.364;2023-11-19T09:04:15;101821.91;;;13.51;81.14
79527;BME280;68974;47.754;-3.364;2023-11-19T09:06:41;101821.66;;;13.47;81.98
79527;BME280;68974;47.754;-3.364;2023-11-19T09:09:08;101816.13;;;13.52;82.51
79527;BME280;68974;47.754;-3.364;2023-11-19T09:11:33;101822.19;;;14.10;81.93
79527;BME280;68974;47.754;-3.364;2023-11-19T09:13:58;101810.25;;;15.09;77.80
79527;BME280;68974;47.754;-3.364;2023-11-19T09:16:24;101796.47;;;15.82;73.37
79527;BME280;68974;47.754;-3.364;2023-11-19T09:18:50;101804.00;;;16.05;71.52
79527;BME280;68974;47.754;-3.364;2023-11-19T09:21:15;101811.72;;;16.08;69.97
79527;BME280;68974;47.754;-3.364;2023-11-19T09:23:41;101814.13;;;15.91;69.60
79527;BME280;68974;47.754;-3.364;2023-11-19T09:26:08;101818.38;;;15.39;69.99
79527;BME280;68974;47.754;-3.364;2023-11-19T09:28:33;101830.63;;;15.28;70.41
79527;BME280;68974;47.754;-3.364;2023-11-19T09:30:59;101822.63;;;15.22;71.02
79527;BME280;68974;47.754;-3.364;2023-11-19T09:33:24;101836.84;;;15.10;70.86
79527;BME280;68974;47.754;-3.364;2023-11-19T09:35:50;101830.81;;;14.93;72.12
79527;BME280;68974;47.754;-3.364;2023-11-19T09:38:16;101845.72;;;14.97;71.74
79527;BME280;68974;47.754;-3.364;2023-11-19T09:40:42;101846.13;;;14.75;72.48
79527;BME280;68974;47.754;-3.364;2023-11-19T09:43:07;101837.50;;;14.77;72.69
79527;BME280;68974;47.754;-3.364;2023-11-19T09:45:47;101840.28;;;14.77;73.47
79527;BME280;68974;47.754;-3.364;2023-11-19T09:48:16;101842.53;;;14.69;74.65
79527;BME280;68974;47.754;-3.364;2023-11-19T09:50:42;101843.66;;;14.58;75.38
79527;BME280;68974;47.754;-3.364;2023-11-19T09:53:09;101843.09;;;14.56;75.40
79527;BME280;68974;47.754;-3.364;2023-11-19T09:55:34;101859.13;;;14.69;75.64
79527;BME280;68974;47.754;-3.364;2023-11-19T09:58:01;101869.59;;;14.78;76.05
79527;BME280;68974;47.754;-3.364;2023-11-19T10:00:27;101870.97;;;14.90;76.57
79527;BME280;68974;47.754;-3.364;2023-11-19T10:02:54;101863.97;;;15.03;74.80
79527;BME280;68974;47.754;-3.364;2023-11-19T10:05:20;101876.41;;;15.00;73.77
79527;BME280;68974;47.754;-3.364;2023-11-19T10:07:48;101873.03;;;15.18;73.56
79527;BME280;68974;47.754;-3.364;2023-11-19T10:10:14;101862.50;;;15.15;72.34
79527;BME280;68974;47.754;-3.364;2023-11-19T10:12:44;101866.16;;;15.06;73.83
79527;BME280;68974;47.754;-3.364;2023-11-19T10:15:19;101873.88;;;15.14;73.48
79527;BME280;68974;47.754;-3.364;2023-11-19T10:17:45;101865.53;;;15.24;72.39
79527;BME280;68974;47.754;-3.364;2023-11-19T10:20:10;101858.56;;;15.32;71.92
79527;BME280;68974;47.754;-3.364;2023-11-19T10:22:38;101871.50;;;15.41;71.77
79527;BME280;68974;47.754;-3.364;2023-11-19T10:25:05;101871.13;;;15.14;72.01
79527;BME280;68974;47.754;-3.364;2023-11-19T10:27:46;101865.63;;;15.04;72.59
79527;BME280;68974;47.754;-3.364;2023-11-19T10:30:12;101869.00;;;14.91;74.03
79527;BME280;68974;47.754;-3.364;2023-11-19T10:32:37;101858.88;;;15.25;72.78
79527;BME280;68974;47.754;-3.364;2023-11-19T10:35:05;101870.34;;;15.57;72.47
79527;BME280;68974;47.754;-3.364;2023-11-19T10:37:31;101856.72;;;16.00;69.75
79527;BME280;68974;47.754;-3.364;2023-11-19T10:39:57;101870.16;;;16.45;69.38
79527;BME280;68974;47.754;-3.364;2023-11-19T10:42:23;101853.66;;;16.83;68.09
79527;BME280;68974;47.754;-3.364;2023-11-19T10:44:48;101861.78;;;16.98;66.70
79527;BME280;68974;47.754;-3.364;2023-11-19T10:47:14;101853.22;;;17.18;65.30
79527;BME280;68974;47.754;-3.364;2023-11-19T10:49:40;101869.44;;;17.86;63.97
79527;BME280;68974;47.754;-3.364;2023-11-19T10:52:08;101848.69;;;17.97;61.70
79527;BME280;68974;47.754;-3.364;2023-11-19T10:54:34;101854.25;;;18.43;60.77
79527;BME280;68974;47.754;-3.364;2023-11-19T10:57:01;101855.03;;;18.90;58.41
79527;BME280;68974;47.754;-3.364;2023-11-19T10:59:30;101850.88;;;19.15;56.27
79527;BME280;68974;47.754;-3.364;2023-11-19T11:01:57;101858.88;;;19.79;54.42
79527;BME280;68974;47.754;-3.364;2023-11-19T11:04:25;101857.63;;;21.09;52.15
79527;BME280;68974;47.754;-3.364;2023-11-19T11:06:54;101854.72;;;21.31;51.46
79527;BME280;68974;47.754;-3.364;2023-11-19T11:09:20;101862.66;;;21.64;50.39
79527;BME280;68974;47.754;-3.364;2023-11-19T11:11:47;101853.78;;;21.79;49.19
79527;BME280;68974;47.754;-3.364;2023-11-19T11:14:13;101852.31;;;20.99;51.21
79527;BME280;68974;47.754;-3.364;2023-11-19T11:16:43;101850.63;;;21.29;50.96
79527;BME280;68974;47.754;-3.364;2023-11-19T11:19:10;101847.56;;;20.51;52.43
79527;BME280;68974;47.754;-3.364;2023-11-19T11:21:35;101854.81;;;21.09;50.78
79527;BME280;68974;47.754;-3.364;2023-11-19T11:29:29;101867.63;;;20.09;53.09
79527;BME280;68974;47.754;-3.364;2023-11-19T11:32:21;101871.13;;;19.56;53.90
79527;BME280;68974;47.754;-3.364;2023-11-19T11:35:02;101872.56;;;19.67;54.42
79527;BME280;68974;47.754;-3.364;2023-11-19T11:37:45;101869.97;;;18.94;55.60
79527;BME280;68974;47.754;-3.364;2023-11-19T11:40:17;101867.91;;;18.72;56.86
79527;BME280;68974;47.754;-3.364;2023-11-19T11:42:44;101881.06;;;18.53;58.00
79527;BME280;68974;47.754;-3.364;2023-11-19T11:45:11;101867.44;;;18.05;59.79
79527;BME280;68974;47.754;-3.364;2023-11-19T11:50:12;101851.66;;;19.42;56.70
79527;BME280;68974;47.754;-3.364;2023-11-19T11:53:15;101843.59;;;19.05;56.37
79527;BME280;68974;47.754;-3.364;2023-11-19T11:58:26;101842.88;;;19.35;55.99
79527;BME280;68974;47.754;-3.364;2023-11-19T12:00:51;101852.22;;;19.67;54.99
79527;BME280;68974;47.754;-3.364;2023-11-19T12:03:20;101840.31;;;19.75;54.91
79527;BME280;68974;47.754;-3.364;2023-11-19T12:05:47;101831.69;;;20.07;54.36
79527;BME280;68974;47.754;-3.364;2023-11-19T12:08:14;101840.53;;;19.29;55.05
79527;BME280;68974;47.754;-3.364;2023-11-19T12:10:50;101847.06;;;20.27;52.81
79527;BME280;68974;47.754;-3.364;2023-11-19T12:13:19;101834.50;;;20.77;50.84
79527;BME280;68974;47.754;-3.364;2023-11-19T12:18:31;101827.75;;;20.08;52.77
79527;BME280;68974;47.754;-3.364;2023-11-19T12:20:58;101833.50;;;20.73;51.22
79527;BME280;68974;47.754;-3.364;2023-11-19T12:23:27;101828.56;;;21.18;49.66
79527;BME280;68974;47.754;-3.364;2023-11-19T12:25:54;101835.31;;;19.85;53.02
79527;BME280;68974;47.754;-3.364;2023-11-19T12:28:20;101836.88;;;19.42;53.33
79527;BME280;68974;47.754;-3.364;2023-11-19T12:30:46;101843.72;;;19.72;52.21
79527;BME280;68974;47.754;-3.364;2023-11-19T12:33:13;101841.59;;;19.91;51.59
79527;BME280;68974;47.754;-3.364;2023-11-19T12:35:45;101842.53;;;18.87;53.76
79527;BME280;68974;47.754;-3.364;2023-11-19T12:38:23;101845.13;;;18.10;55.83
79527;BME280;68974;47.754;-3.364;2023-11-19T12:41:08;101847.72;;;17.32;58.20
79527;BME280;68974;47.754;-3.364;2023-11-19T12:43:36;101848.66;;;16.85;61.33
79527;BME280;68974;47.754;-3.364;2023-11-19T12:46:21;101850.88;;;16.59;62.66
79527;BME280;68974;47.754;-3.364;2023-11-19T12:48:48;101834.72;;;16.66;63.18
79527;BME280;68974;47.754;-3.364;2023-11-19T12:51:13;101847.38;;;16.48;63.96